sensor_id;sensor_type;location;lat;lon;timestamp;P1;durP1;ratioP1;P2;durP2;ratioP2
56477;SDS011;42382;53.210;5.772;2022-12-18T00:00:40;99.95;;;39.15;;
56477;SDS011;42382;53.210;5.772;2022-12-18T00:03:06;102.30;;;39.30;;
56477;SDS011;42382;53.210;5.772;2022-12-18T00:05:32;105.15;;;40.92;;
56477;SDS011;42382;53.210;5.772;2022-12-18T00:08:02;99.80;;;38.85;;
56477;SDS011;42382;53.210;5.772;2022-12-18T00:10:28;103.47;;;39.97;;
56477;SDS011;42382;53.210;5.772;2022-12-18T00:12:54;108.38;;;40.20;;
56477;SDS011;42382;53.210;5.772;2022-12-18T00:15:22;99.68;;;39.38;;
56477;SDS011;42382;53.210;5.772;2022-12-18T00:17:48;116.95;;;41.63;;
56477;SDS011;42382;53.210;5.772;2022-12-18T00:20:14;108.00;;;40.15;;
56477;SDS011;42382;53.210;5.772;2022-12-18T00:22:45;105.43;;;41.33;;
56477;SDS011;42382;53.210;5.772;2022-12-18T00:25:11;103.72;;;39.72;;
56477;SDS011;42382;53.210;5.772;2022-12-18T00:27:37;100.45;;;39.50;;
56477;SDS011;42382;53.210;5.772;2022-12-18T00:30:03;107.57;;;41.17;;
56477;SDS011;42382;53.210;5.772;2022-12-18T00:32:29;108.43;;;39.47;;
56477;SDS011;42382;53.210;5.772;2022-12-18T00:34:55;107.70;;;39.17;;
56477;SDS011;42382;53.210;5.772;2022-12-18T00:37:21;105.18;;;38.92;;
56477;SDS011;42382;53.210;5.772;2022-12-18T00:39:47;102.25;;;40.55;;
56477;SDS011;42382;53.210;5.772;2022-12-18T00:42:14;105.65;;;38.25;;
56477;SDS011;42382;53.210;5.772;2022-12-18T00:44:59;112.10;;;39.63;;
56477;SDS011;42382;53.210;5.772;2022-12-18T00:47:25;104.45;;;39.97;;
56477;SDS011;42382;53.210;5.772;2022-12-18T00:49:51;107.82;;;39.45;;
56477;SDS011;42382;53.210;5.772;2022-12-18T00:52:17;99.47;;;39.85;;
56477;SDS011;42382;53.210;5.772;2022-12-18T00:54:43;100.25;;;39.00;;
56477;SDS011;42382;53.210;5.772;2022-12-18T00:57:09;103.63;;;39.55;;
56477;SDS011;42382;53.210;5.772;2022-12-18T00:59:35;112.15;;;40.78;;
56477;SDS011;42382;53.210;5.772;2022-12-18T01:02:01;106.57;;;39.28;;
56477;SDS011;42382;53.210;5.772;2022-12-18T01:04:27;98.65;;;38.70;;
56477;SDS011;42382;53.210;5.772;2022-12-18T01:06:53;98.30;;;38.05;;
56477;SDS011;42382;53.210;5.772;2022-12-18T01:09:19;103.20;;;39.28;;
56477;SDS011;42382;53.210;5.772;2022-12-18T01:11:45;98.10;;;37.70;;
56477;SDS011;42382;53.210;5.772;2022-12-18T01:14:11;98.85;;;39.22;;
56477;SDS011;42382;53.210;5.772;2022-12-18T01:16:37;95.32;;;36.78;;
56477;SDS011;42382;53.210;5.772;2022-12-18T01:19:03;98.75;;;38.88;;
56477;SDS011;42382;53.210;5.772;2022-12-18T01:21:29;93.72;;;36.78;;
56477;SDS011;42382;53.210;5.772;2022-12-18T01:23:58;93.85;;;37.20;;
56477;SDS011;42382;53.210;5.772;2022-12-18T01:26:24;97.18;;;37.22;;
56477;SDS011;42382;53.210;5.772;2022-12-18T01:28:53;92.40;;;37.22;;
56477;SDS011;42382;53.210;5.772;2022-12-18T01:31:20;100.32;;;37.85;;
56477;SDS011;42382;53.210;5.772;2022-12-18T01:33:47;96.43;;;36.47;;
56477;SDS011;42382;53.210;5.772;2022-12-18T01:36:23;94.45;;;35.50;;
56477;SDS011;42382;53.210;5.772;2022-12-18T01:38:50;98.90;;;36.72;;
56477;SDS011;42382;53.210;5.772;2022-12-18T01:41:16;95.15;;;36.35;;
56477;SDS011;42382;53.210;5.772;2022-12-18T01:43:44;96.03;;;35.90;;
56477;SDS011;42382;53.210;5.772;2022-12-18T01:46:10;90.50;;;35.65;;
56477;SDS011;42382;53.210;5.772;2022-12-18T01:48:36;98.28;;;35.50;;
56477;SDS011;42382;53.210;5.772;2022-12-18T01:51:02;90.20;;;34.55;;
56477;SDS011;42382;53.210;5.772;2022-12-18T01:53:30;90.38;;;34.67;;
56477;SDS011;42382;53.210;5.772;2022-12-18T01:55:56;93.40;;;34.67;;
56477;SDS011;42382;53.210;5.772;2022-12-18T01:58:25;87.88;;;34.17;;
56477;SDS011;42382;53.210;5.772;2022-12-18T02:00:54;84.10;;;32.80;;
56477;SDS011;42382;53.210;5.772;2022-12-18T02:03:20;92.43;;;33.88;;
56477;SDS011;42382;53.210;5.772;2022-12-18T02:05:51;85.28;;;32.03;;
56477;SDS011;42382;53.210;5.772;2022-12-18T02:08:21;89.55;;;34.33;;
56477;SDS011;42382;53.210;5.772;2022-12-18T02:10:54;88.65;;;34.13;;
56477;SDS011;42382;53.210;5.772;2022-12-18T02:13:34;81.07;;;31.77;;
56477;SDS011;42382;53.210;5.772;2022-12-18T02:16:05;84.85;;;33.38;;
56477;SDS011;42382;53.210;5.772;2022-12-18T02:18:35;86.80;;;32.78;;
56477;SDS011;42382;53.210;5.772;2022-12-18T02:21:20;90.03;;;34.05;;
56477;SDS011;42382;53.210;5.772;2022-12-18T02:23:58;89.20;;;32.88;;
56477;SDS011;42382;53.210;5.772;2022-12-18T02:29:01;87.32;;;33.30;;
56477;SDS011;42382;53.210;5.772;2022-12-18T02:31:29;94.35;;;34.13;;
56477;SDS011;42382;53.210;5.772;2022-12-18T02:33:56;94.70;;;34.08;;
56477;SDS011;42382;53.210;5.772;2022-12-18T02:36:24;93.95;;;34.35;;
56477;SDS011;42382;53.210;5.772;2022-12-18T02:38:52;102.40;;;35.40;;
56477;SDS011;42382;53.210;5.772;2022-12-18T02:41:19;95.05;;;35.38;;
56477;SDS011;42382;53.210;5.772;2022-12-18T02:43:46;111.57;;;36.40;;
56477;SDS011;42382;53.210;5.772;2022-12-18T02:46:23;94.97;;;33.85;;
56477;SDS011;42382;53.210;5.772;2022-12-18T02:48:51;85.53;;;31.42;;
56477;SDS011;42382;53.210;5.772;2022-12-18T02:51:24;91.72;;;33.45;;
56477;SDS011;42382;53.210;5.772;2022-12-18T02:53:58;88.78;;;32.30;;
56477;SDS011;42382;53.210;5.772;2022-12-18T02:56:29;94.90;;;32.38;;
56477;SDS011;42382;53.210;5.772;2022-12-18T02:58:58;89.03;;;32.83;;
56477;SDS011;42382;53.210;5.772;2022-12-18T03:03:53;93.38;;;31.98;;
56477;SDS011;42382;53.210;5.772;2022-12-18T03:06:30;88.30;;;32.53;;
56477;SDS011;42382;53.210;5.772;2022-12-18T03:09:08;97.73;;;32.57;;
56477;SDS011;42382;53.210;5.772;2022-12-18T03:11:36;88.35;;;32.15;;
56477;SDS011;42382;53.210;5.772;2022-12-18T03:14:22;92.93;;;32.93;;
56477;SDS011;42382;53.210;5.772;2022-12-18T03:16:50;90.33;;;32.20;;
56477;SDS011;42382;53.210;5.772;2022-12-18T03:19:19;88.35;;;32.22;;
56477;SDS011;42382;53.210;5.772;2022-12-18T03:21:47;91.00;;;31.95;;
56477;SDS011;42382;53.210;5.772;2022-12-18T03:24:13;95.30;;;34.53;;
56477;SDS011;42382;53.210;5.772;2022-12-18T03:26:41;89.93;;;33.17;;
56477;SDS011;42382;53.210;5.772;2022-12-18T03:29:13;88.83;;;33.27;;
56477;SDS011;42382;53.210;5.772;2022-12-18T03:31:42;87.03;;;30.17;;
56477;SDS011;42382;53.210;5.772;2022-12-18T03:34:13;96.60;;;33.47;;
56477;SDS011;42382;53.210;5.772;2022-12-18T03:36:40;86.10;;;31.23;;
56477;SDS011;42382;53.210;5.772;2022-12-18T03:39:06;85.00;;;29.90;;
56477;SDS011;42382;53.210;5.772;2022-12-18T03:41:46;85.57;;;31.37;;
56477;SDS011;42382;53.210;5.772;2022-12-18T03:44:14;94.27;;;32.27;;
56477;SDS011;42382;53.210;5.772;2022-12-18T03:47:25;88.00;;;31.27;;
56477;SDS011;42382;53.210;5.772;2022-12-18T03:52:02;83.77;;;30.63;;
56477;SDS011;42382;53.210;5.772;2022-12-18T03:54:29;95.50;;;31.67;;
56477;SDS011;42382;53.210;5.772;2022-12-18T03:57:01;101.23;;;33.37;;
56477;SDS011;42382;53.210;5.772;2022-12-18T03:59:29;97.70;;;31.23;;
56477;SDS011;42382;53.210;5.772;2022-12-18T04:01:55;99.23;;;33.53;;
56477;SDS011;42382;53.210;5.772;2022-12-18T04:04:23;88.53;;;32.50;;
56477;SDS011;42382;53.210;5.772;2022-12-18T04:06:49;95.87;;;34.37;;
56477;SDS011;42382;53.210;5.772;2022-12-18T04:09:17;92.20;;;31.57;;
56477;SDS011;42382;53.210;5.772;2022-12-18T04:11:43;95.73;;;32.40;;
56477;SDS011;42382;53.210;5.772;2022-12-18T04:14:10;93.87;;;32.07;;
56477;SDS011;42382;53.210;5.772;2022-12-18T04:16:36;93.83;;;33.27;;
56477;SDS011;42382;53.210;5.772;2022-12-18T04:19:03;91.03;;;33.57;;
56477;SDS011;42382;53.210;5.772;2022-12-18T04:21:29;94.10;;;32.87;;
56477;SDS011;42382;53.210;5.772;2022-12-18T04:23:55;95.67;;;34.17;;
56477;SDS011;42382;53.210;5.772;2022-12-18T04:26:21;95.93;;;33.40;;
56477;SDS011;42382;53.210;5.772;2022-12-18T04:28:47;99.87;;;34.90;;
56477;SDS011;42382;53.210;5.772;2022-12-18T04:31:13;91.80;;;32.83;;
56477;SDS011;42382;53.210;5.772;2022-12-18T04:33:39;85.40;;;31.10;;
56477;SDS011;42382;53.210;5.772;2022-12-18T04:36:05;98.77;;;33.23;;
56477;SDS011;42382;53.210;5.772;2022-12-18T04:38:31;95.47;;;33.13;;
56477;SDS011;42382;53.210;5.772;2022-12-18T04:40:58;96.90;;;33.63;;
56477;SDS011;42382;53.210;5.772;2022-12-18T05:17:46;88.43;;;30.47;;
56477;SDS011;42382;53.210;5.772;2022-12-18T05:20:12;95.77;;;32.60;;
56477;SDS011;42382;53.210;5.772;2022-12-18T05:22:38;84.33;;;32.10;;
56477;SDS011;42382;53.210;5.772;2022-12-18T05:25:04;78.73;;;31.60;;
56477;SDS011;42382;53.210;5.772;2022-12-18T05:27:30;90.93;;;31.70;;
56477;SDS011;42382;53.210;5.772;2022-12-18T05:29:56;76.70;;;30.63;;
56477;SDS011;42382;53.210;5.772;2022-12-18T05:32:22;80.63;;;29.67;;
56477;SDS011;42382;53.210;5.772;2022-12-18T05:34:48;83.90;;;30.57;;
56477;SDS011;42382;53.210;5.772;2022-12-18T05:37:14;78.70;;;30.37;;
56477;SDS011;42382;53.210;5.772;2022-12-18T05:39:42;80.17;;;29.77;;
56477;SDS011;42382;53.210;5.772;2022-12-18T05:42:08;86.20;;;30.55;;
56477;SDS011;42382;53.210;5.772;2022-12-18T05:44:34;76.77;;;28.27;;
56477;SDS011;42382;53.210;5.772;2022-12-18T05:47:00;85.73;;;31.37;;
56477;SDS011;42382;53.210;5.772;2022-12-18T05:49:26;78.17;;;30.90;;
56477;SDS011;42382;53.210;5.772;2022-12-18T05:51:52;83.27;;;29.73;;
56477;SDS011;42382;53.210;5.772;2022-12-18T05:54:18;75.17;;;27.90;;
56477;SDS011;42382;53.210;5.772;2022-12-18T05:56:44;79.67;;;29.60;;
56477;SDS011;42382;53.210;5.772;2022-12-18T05:59:10;71.53;;;29.60;;
56477;SDS011;42382;53.210;5.772;2022-12-18T06:01:36;78.87;;;30.87;;
56477;SDS011;42382;53.210;5.772;2022-12-18T06:04:02;80.13;;;30.07;;
56477;SDS011;42382;53.210;5.772;2022-12-18T06:06:28;78.20;;;29.77;;
56477;SDS011;42382;53.210;5.772;2022-12-18T06:08:55;77.87;;;27.80;;
56477;SDS011;42382;53.210;5.772;2022-12-18T06:11:22;69.33;;;27.97;;
56477;SDS011;42382;53.210;5.772;2022-12-18T06:13:49;73.40;;;27.73;;
56477;SDS011;42382;53.210;5.772;2022-12-18T06:16:16;82.03;;;28.87;;
56477;SDS011;42382;53.210;5.772;2022-12-18T06:18:42;70.40;;;27.10;;
56477;SDS011;42382;53.210;5.772;2022-12-18T06:21:08;69.83;;;26.83;;
56477;SDS011;42382;53.210;5.772;2022-12-18T06:23:34;68.10;;;25.37;;
56477;SDS011;42382;53.210;5.772;2022-12-18T06:26:04;65.70;;;26.80;;
56477;SDS011;42382;53.210;5.772;2022-12-18T06:28:30;72.77;;;26.93;;
56477;SDS011;42382;53.210;5.772;2022-12-18T06:30:56;66.20;;;25.90;;
56477;SDS011;42382;53.210;5.772;2022-12-18T06:33:25;67.70;;;26.47;;
56477;SDS011;42382;53.210;5.772;2022-12-18T06:35:51;64.30;;;26.97;;
56477;SDS011;42382;53.210;5.772;2022-12-18T06:38:17;61.40;;;25.40;;
56477;SDS011;42382;53.210;5.772;2022-12-18T06:40:43;62.63;;;25.70;;
56477;SDS011;42382;53.210;5.772;2022-12-18T06:43:09;65.70;;;26.13;;
56477;SDS011;42382;53.210;5.772;2022-12-18T06:45:35;55.70;;;23.90;;
56477;SDS011;42382;53.210;5.772;2022-12-18T06:48:01;64.00;;;25.63;;
56477;SDS011;42382;53.210;5.772;2022-12-18T06:50:27;63.60;;;25.87;;
56477;SDS011;42382;53.210;5.772;2022-12-18T06:52:53;64.23;;;25.50;;
56477;SDS011;42382;53.210;5.772;2022-12-18T06:55:19;69.03;;;26.17;;
56477;SDS011;42382;53.210;5.772;2022-12-18T06:57:45;60.37;;;24.33;;
56477;SDS011;42382;53.210;5.772;2022-12-18T07:00:12;56.07;;;23.27;;
56477;SDS011;42382;53.210;5.772;2022-12-18T07:02:38;62.57;;;25.07;;
56477;SDS011;42382;53.210;5.772;2022-12-18T07:05:05;63.80;;;24.97;;
56477;SDS011;42382;53.210;5.772;2022-12-18T07:07:31;60.60;;;23.80;;
56477;SDS011;42382;53.210;5.772;2022-12-18T07:09:58;53.40;;;21.83;;
56477;SDS011;42382;53.210;5.772;2022-12-18T07:12:26;64.57;;;27.83;;
56477;SDS011;42382;53.210;5.772;2022-12-18T07:14:52;59.13;;;22.07;;
56477;SDS011;42382;53.210;5.772;2022-12-18T07:17:18;57.87;;;23.67;;
56477;SDS011;42382;53.210;5.772;2022-12-18T07:19:44;57.50;;;23.00;;
56477;SDS011;42382;53.210;5.772;2022-12-18T07:22:10;51.17;;;21.03;;
56477;SDS011;42382;53.210;5.772;2022-12-18T07:24:36;54.23;;;22.27;;
56477;SDS011;42382;53.210;5.772;2022-12-18T07:27:02;57.83;;;21.87;;
56477;SDS011;42382;53.210;5.772;2022-12-18T07:29:28;55.73;;;22.73;;
56477;SDS011;42382;53.210;5.772;2022-12-18T07:31:54;56.73;;;22.93;;
56477;SDS011;42382;53.210;5.772;2022-12-18T07:34:20;55.37;;;21.00;;
56477;SDS011;42382;53.210;5.772;2022-12-18T07:36:46;49.00;;;20.37;;
56477;SDS011;42382;53.210;5.772;2022-12-18T07:39:15;53.07;;;20.93;;
56477;SDS011;42382;53.210;5.772;2022-12-18T07:41:41;47.37;;;20.20;;
56477;SDS011;42382;53.210;5.772;2022-12-18T07:44:11;50.33;;;19.67;;
56477;SDS011;42382;53.210;5.772;2022-12-18T07:46:37;47.07;;;20.53;;
56477;SDS011;42382;53.210;5.772;2022-12-18T07:49:03;41.43;;;18.90;;
56477;SDS011;42382;53.210;5.772;2022-12-18T07:51:29;46.27;;;19.93;;
56477;SDS011;42382;53.210;5.772;2022-12-18T07:53:56;48.10;;;20.50;;
56477;SDS011;42382;53.210;5.772;2022-12-18T07:56:22;48.53;;;20.70;;
56477;SDS011;42382;53.210;5.772;2022-12-18T07:58:48;48.33;;;19.07;;
56477;SDS011;42382;53.210;5.772;2022-12-18T08:01:14;51.17;;;20.63;;
56477;SDS011;42382;53.210;5.772;2022-12-18T08:03:40;40.17;;;18.60;;
56477;SDS011;42382;53.210;5.772;2022-12-18T08:06:07;50.87;;;20.27;;
56477;SDS011;42382;53.210;5.772;2022-12-18T08:08:34;48.53;;;20.27;;
56477;SDS011;42382;53.210;5.772;2022-12-18T08:11:00;48.90;;;19.73;;
56477;SDS011;42382;53.210;5.772;2022-12-18T08:13:27;48.90;;;19.50;;
56477;SDS011;42382;53.210;5.772;2022-12-18T08:15:57;42.77;;;18.93;;
56477;SDS011;42382;53.210;5.772;2022-12-18T08:18:23;44.07;;;18.53;;
56477;SDS011;42382;53.210;5.772;2022-12-18T08:20:49;41.73;;;19.47;;
56477;SDS011;42382;53.210;5.772;2022-12-18T08:23:15;43.80;;;19.47;;
56477;SDS011;42382;53.210;5.772;2022-12-18T08:25:41;47.07;;;19.50;;
56477;SDS011;42382;53.210;5.772;2022-12-18T08:28:07;45.17;;;18.93;;
56477;SDS011;42382;53.210;5.772;2022-12-18T08:30:33;42.90;;;18.93;;
56477;SDS011;42382;53.210;5.772;2022-12-18T08:32:59;43.90;;;18.47;;
56477;SDS011;42382;53.210;5.772;2022-12-18T08:35:25;40.27;;;18.50;;
56477;SDS011;42382;53.210;5.772;2022-12-18T08:37:52;37.83;;;16.93;;
56477;SDS011;42382;53.210;5.772;2022-12-18T08:40:18;39.17;;;18.20;;
56477;SDS011;42382;53.210;5.772;2022-12-18T08:42:43;32.90;;;16.77;;
56477;SDS011;42382;53.210;5.772;2022-12-18T08:45:28;36.03;;;17.60;;
56477;SDS011;42382;53.210;5.772;2022-12-18T08:47:55;42.60;;;19.13;;
56477;SDS011;42382;53.210;5.772;2022-12-18T08:50:21;43.30;;;18.33;;
56477;SDS011;42382;53.210;5.772;2022-12-18T08:52:47;37.63;;;17.43;;
56477;SDS011;42382;53.210;5.772;2022-12-18T08:55:13;37.50;;;17.63;;
56477;SDS011;42382;53.210;5.772;2022-12-18T08:57:39;39.10;;;17.23;;
56477;SDS011;42382;53.210;5.772;2022-12-18T09:00:05;39.07;;;18.43;;
56477;SDS011;42382;53.210;5.772;2022-12-18T09:02:34;39.57;;;17.10;;
56477;SDS011;42382;53.210;5.772;2022-12-18T09:05:00;38.23;;;17.77;;
56477;SDS011;42382;53.210;5.772;2022-12-18T09:07:26;34.57;;;17.40;;
56477;SDS011;42382;53.210;5.772;2022-12-18T09:09:52;38.53;;;18.27;;
56477;SDS011;42382;53.210;5.772;2022-12-18T09:12:18;38.27;;;17.50;;
56477;SDS011;42382;53.210;5.772;2022-12-18T09:14:44;35.53;;;16.53;;
56477;SDS011;42382;53.210;5.772;2022-12-18T09:17:10;36.57;;;16.30;;
56477;SDS011;42382;53.210;5.772;2022-12-18T09:19:39;37.53;;;16.73;;
56477;SDS011;42382;53.210;5.772;2022-12-18T09:22:05;36.87;;;17.87;;
56477;SDS011;42382;53.210;5.772;2022-12-18T09:24:33;37.27;;;17.87;;
56477;SDS011;42382;53.210;5.772;2022-12-18T09:26:59;29.17;;;16.07;;
56477;SDS011;42382;53.210;5.772;2022-12-18T09:29:25;38.07;;;16.33;;
56477;SDS011;42382;53.210;5.772;2022-12-18T09:31:51;37.90;;;16.00;;
56477;SDS011;42382;53.210;5.772;2022-12-18T09:34:17;32.83;;;15.20;;
56477;SDS011;42382;53.210;5.772;2022-12-18T09:36:45;32.90;;;15.47;;
56477;SDS011;42382;53.210;5.772;2022-12-18T09:39:11;37.87;;;15.63;;
56477;SDS011;42382;53.210;5.772;2022-12-18T09:44:21;34.10;;;15.47;;
56477;SDS011;42382;53.210;5.772;2022-12-18T09:46:50;37.07;;;15.27;;
56477;SDS011;42382;53.210;5.772;2022-12-18T09:49:18;34.93;;;15.33;;
56477;SDS011;42382;53.210;5.772;2022-12-18T09:51:47;34.27;;;15.80;;
56477;SDS011;42382;53.210;5.772;2022-12-18T09:54:19;29.65;;;14.63;;
56477;SDS011;42382;53.210;5.772;2022-12-18T09:56:46;29.67;;;14.87;;
56477;SDS011;42382;53.210;5.772;2022-12-18T10:01:47;32.73;;;14.53;;
56477;SDS011;42382;53.210;5.772;2022-12-18T10:04:13;32.00;;;14.77;;
56477;SDS011;42382;53.210;5.772;2022-12-18T10:26:51;24.17;;;13.07;;
56477;SDS011;42382;53.210;5.772;2022-12-18T10:29:17;27.05;;;12.75;;
56477;SDS011;42382;53.210;5.772;2022-12-18T10:31:44;23.98;;;12.10;;
56477;SDS011;42382;53.210;5.772;2022-12-18T10:34:10;24.63;;;12.30;;
56477;SDS011;42382;53.210;5.772;2022-12-18T10:36:36;25.75;;;11.85;;
56477;SDS011;42382;53.210;5.772;2022-12-18T10:39:22;20.63;;;10.98;;
56477;SDS011;42382;53.210;5.772;2022-12-18T10:44:18;21.13;;;10.20;;
56477;SDS011;42382;53.210;5.772;2022-12-18T10:46:45;22.80;;;11.70;;
56477;SDS011;42382;53.210;5.772;2022-12-18T10:49:27;26.13;;;12.48;;
56477;SDS011;42382;53.210;5.772;2022-12-18T10:54:39;20.02;;;10.18;;
56477;SDS011;42382;53.210;5.772;2022-12-18T10:59:50;15.02;;;8.43;;
56477;SDS011;42382;53.210;5.772;2022-12-18T11:02:35;16.63;;;8.95;;
56477;SDS011;42382;53.210;5.772;2022-12-18T11:05:02;17.15;;;9.35;;
56477;SDS011;42382;53.210;5.772;2022-12-18T11:07:49;16.42;;;8.82;;
56477;SDS011;42382;53.210;5.772;2022-12-18T11:10:19;14.80;;;8.47;;
56477;SDS011;42382;53.210;5.772;2022-12-18T11:12:46;18.70;;;9.48;;
56477;SDS011;42382;53.210;5.772;2022-12-18T11:15:23;18.30;;;9.48;;
56477;SDS011;42382;53.210;5.772;2022-12-18T11:17:50;17.52;;;9.07;;
56477;SDS011;42382;53.210;5.772;2022-12-18T11:20:27;16.80;;;8.60;;
56477;SDS011;42382;53.210;5.772;2022-12-18T11:23:00;14.43;;;8.30;;
56477;SDS011;42382;53.210;5.772;2022-12-18T11:25:30;14.30;;;7.85;;
56477;SDS011;42382;53.210;5.772;2022-12-18T11:30:26;15.65;;;8.23;;
56477;SDS011;42382;53.210;5.772;2022-12-18T11:35:50;13.70;;;7.90;;
56477;SDS011;42382;53.210;5.772;2022-12-18T11:38:22;15.10;;;7.85;;
56477;SDS011;42382;53.210;5.772;2022-12-18T11:40:51;13.30;;;7.70;;
56477;SDS011;42382;53.210;5.772;2022-12-18T11:43:25;16.42;;;7.88;;
56477;SDS011;42382;53.210;5.772;2022-12-18T11:45:53;16.25;;;8.15;;
56477;SDS011;42382;53.210;5.772;2022-12-18T11:53:16;13.20;;;7.15;;
56477;SDS011;42382;53.210;5.772;2022-12-18T11:55:50;15.88;;;8.10;;
56477;SDS011;42382;53.210;5.772;2022-12-18T11:58:25;12.13;;;7.05;;
56477;SDS011;42382;53.210;5.772;2022-12-18T12:01:00;12.80;;;6.93;;
56477;SDS011;42382;53.210;5.772;2022-12-18T12:03:35;14.82;;;7.68;;
56477;SDS011;42382;53.210;5.772;2022-12-18T12:06:15;13.80;;;7.82;;
56477;SDS011;42382;53.210;5.772;2022-12-18T12:11:29;15.43;;;7.68;;
56477;SDS011;42382;53.210;5.772;2022-12-18T12:16:41;16.55;;;8.35;;
56477;SDS011;42382;53.210;5.772;2022-12-18T12:19:19;14.70;;;8.07;;
56477;SDS011;42382;53.210;5.772;2022-12-18T12:21:52;14.57;;;7.55;;
56477;SDS011;42382;53.210;5.772;2022-12-18T12:29:24;12.73;;;7.00;;
56477;SDS011;42382;53.210;5.772;2022-12-18T12:31:56;15.00;;;7.43;;
56477;SDS011;42382;53.210;5.772;2022-12-18T12:34:48;12.68;;;6.82;;
56477;SDS011;42382;53.210;5.772;2022-12-18T12:37:25;14.10;;;7.75;;
56477;SDS011;42382;53.210;5.772;2022-12-18T12:39:55;12.63;;;6.80;;
56477;SDS011;42382;53.210;5.772;2022-12-18T12:42:32;12.90;;;7.10;;
56477;SDS011;42382;53.210;5.772;2022-12-18T12:45:22;12.98;;;7.35;;
56477;SDS011;42382;53.210;5.772;2022-12-18T12:47:51;16.83;;;7.60;;
56477;SDS011;42382;53.210;5.772;2022-12-18T12:50:18;12.32;;;7.07;;
56477;SDS011;42382;53.210;5.772;2022-12-18T12:52:46;11.13;;;6.85;;
56477;SDS011;42382;53.210;5.772;2022-12-18T12:55:23;11.95;;;7.05;;
56477;SDS011;42382;53.210;5.772;2022-12-18T12:58:05;12.57;;;7.03;;
56477;SDS011;42382;53.210;5.772;2022-12-18T13:00:38;14.05;;;7.57;;
56477;SDS011;42382;53.210;5.772;2022-12-18T13:07:59;12.90;;;7.70;;
56477;SDS011;42382;53.210;5.772;2022-12-18T13:10:30;14.23;;;7.60;;
56477;SDS011;42382;53.210;5.772;2022-12-18T13:13:15;12.00;;;7.13;;
56477;SDS011;42382;53.210;5.772;2022-12-18T13:15:42;14.48;;;6.90;;
56477;SDS011;42382;53.210;5.772;2022-12-18T13:20:45;11.95;;;7.22;;
56477;SDS011;42382;53.210;5.772;2022-12-18T13:31:04;15.18;;;7.22;;
56477;SDS011;42382;53.210;5.772;2022-12-18T13:38:43;14.90;;;6.78;;
56477;SDS011;42382;53.210;5.772;2022-12-18T13:41:26;13.98;;;7.18;;
56477;SDS011;42382;53.210;5.772;2022-12-18T13:44:10;10.57;;;6.28;;
56477;SDS011;42382;53.210;5.772;2022-12-18T13:46:46;12.98;;;6.63;;
56477;SDS011;42382;53.210;5.772;2022-12-18T13:51:56;13.52;;;7.72;;
56477;SDS011;42382;53.210;5.772;2022-12-18T13:57:01;12.23;;;6.93;;
56477;SDS011;42382;53.210;5.772;2022-12-18T13:59:34;11.93;;;6.72;;
56477;SDS011;42382;53.210;5.772;2022-12-18T14:02:07;10.88;;;6.18;;
56477;SDS011;42382;53.210;5.772;2022-12-18T14:04:35;13.25;;;6.72;;
56477;SDS011;42382;53.210;5.772;2022-12-18T14:07:05;11.70;;;6.75;;
56477;SDS011;42382;53.210;5.772;2022-12-18T14:09:36;12.63;;;6.78;;
56477;SDS011;42382;53.210;5.772;2022-12-18T14:17:57;11.48;;;5.93;;
56477;SDS011;42382;53.210;5.772;2022-12-18T14:20:30;9.85;;;5.60;;
56477;SDS011;42382;53.210;5.772;2022-12-18T14:22:57;10.98;;;5.50;;
56477;SDS011;42382;53.210;5.772;2022-12-18T14:25:28;13.63;;;6.65;;
56477;SDS011;42382;53.210;5.772;2022-12-18T14:28:14;13.80;;;6.03;;
56477;SDS011;42382;53.210;5.772;2022-12-18T14:30:44;12.15;;;6.15;;
56477;SDS011;42382;53.210;5.772;2022-12-18T14:33:12;8.55;;;5.07;;
56477;SDS011;42382;53.210;5.772;2022-12-18T14:35:43;11.20;;;5.45;;
56477;SDS011;42382;53.210;5.772;2022-12-18T14:38:23;9.88;;;5.60;;
56477;SDS011;42382;53.210;5.772;2022-12-18T14:41:12;11.13;;;5.68;;
56477;SDS011;42382;53.210;5.772;2022-12-18T14:43:40;11.25;;;5.68;;
56477;SDS011;42382;53.210;5.772;2022-12-18T14:49:00;10.43;;;5.22;;
56477;SDS011;42382;53.210;5.772;2022-12-18T14:51:53;8.88;;;5.20;;
56477;SDS011;42382;53.210;5.772;2022-12-18T14:54:22;10.10;;;5.60;;
56477;SDS011;42382;53.210;5.772;2022-12-18T14:56:49;9.32;;;4.97;;
56477;SDS011;42382;53.210;5.772;2022-12-18T14:59:25;10.68;;;5.68;;
56477;SDS011;42382;53.210;5.772;2022-12-18T15:01:57;9.90;;;5.28;;
56477;SDS011;42382;53.210;5.772;2022-12-18T15:04:36;9.48;;;5.15;;
56477;SDS011;42382;53.210;5.772;2022-12-18T15:10:03;11.98;;;6.10;;
56477;SDS011;42382;53.210;5.772;2022-12-18T15:12:33;8.07;;;4.50;;
56477;SDS011;42382;53.210;5.772;2022-12-18T15:14:59;8.50;;;4.10;;
56477;SDS011;42382;53.210;5.772;2022-12-18T15:17:27;8.30;;;4.38;;
56477;SDS011;42382;53.210;5.772;2022-12-18T15:19:53;10.05;;;5.25;;
56477;SDS011;42382;53.210;5.772;2022-12-18T15:22:27;10.25;;;4.95;;
56477;SDS011;42382;53.210;5.772;2022-12-18T15:24:59;8.82;;;4.93;;
56477;SDS011;42382;53.210;5.772;2022-12-18T15:27:32;10.32;;;6.07;;
56477;SDS011;42382;53.210;5.772;2022-12-18T15:32:37;8.73;;;5.28;;
56477;SDS011;42382;53.210;5.772;2022-12-18T15:35:15;8.00;;;4.57;;
56477;SDS011;42382;53.210;5.772;2022-12-18T15:37:41;12.00;;;5.80;;
56477;SDS011;42382;53.210;5.772;2022-12-18T15:40:08;11.68;;;4.82;;
56477;SDS011;42382;53.210;5.772;2022-12-18T15:42:37;10.07;;;5.53;;
56477;SDS011;42382;53.210;5.772;2022-12-18T15:45:21;8.23;;;4.55;;
56477;SDS011;42382;53.210;5.772;2022-12-18T15:47:47;10.30;;;4.80;;
56477;SDS011;42382;53.210;5.772;2022-12-18T15:50:13;8.20;;;4.18;;
56477;SDS011;42382;53.210;5.772;2022-12-18T15:52:42;8.40;;;5.28;;
56477;SDS011;42382;53.210;5.772;2022-12-18T15:55:16;7.45;;;4.25;;
56477;SDS011;42382;53.210;5.772;2022-12-18T15:58:03;6.85;;;4.05;;
56477;SDS011;42382;53.210;5.772;2022-12-18T16:00:29;10.20;;;5.40;;
56477;SDS011;42382;53.210;5.772;2022-12-18T16:02:56;11.73;;;7.03;;
56477;SDS011;42382;53.210;5.772;2022-12-18T16:05:21;14.30;;;7.03;;
56477;SDS011;42382;53.210;5.772;2022-12-18T16:07:48;11.02;;;6.05;;
56477;SDS011;42382;53.210;5.772;2022-12-18T16:10:14;12.43;;;6.10;;
56477;SDS011;42382;53.210;5.772;2022-12-18T16:12:40;9.52;;;5.28;;
56477;SDS011;42382;53.210;5.772;2022-12-18T16:15:07;10.07;;;5.10;;
56477;SDS011;42382;53.210;5.772;2022-12-18T16:17:34;9.80;;;4.88;;
56477;SDS011;42382;53.210;5.772;2022-12-18T16:20:03;11.90;;;5.13;;
56477;SDS011;42382;53.210;5.772;2022-12-18T16:22:29;9.45;;;4.85;;
56477;SDS011;42382;53.210;5.772;2022-12-18T16:24:55;8.88;;;5.32;;
56477;SDS011;42382;53.210;5.772;2022-12-18T16:27:22;9.73;;;5.22;;
56477;SDS011;42382;53.210;5.772;2022-12-18T16:29:48;11.02;;;5.97;;
56477;SDS011;42382;53.210;5.772;2022-12-18T16:32:18;10.32;;;5.70;;
56477;SDS011;42382;53.210;5.772;2022-12-18T16:34:46;9.00;;;5.25;;
56477;SDS011;42382;53.210;5.772;2022-12-18T16:37:12;11.25;;;5.60;;
56477;SDS011;42382;53.210;5.772;2022-12-18T16:39:39;10.30;;;5.55;;
56477;SDS011;42382;53.210;5.772;2022-12-18T16:42:08;9.65;;;5.55;;
56477;SDS011;42382;53.210;5.772;2022-12-18T16:44:41;8.73;;;4.87;;
56477;SDS011;42382;53.210;5.772;2022-12-18T16:47:07;10.65;;;5.35;;
56477;SDS011;42382;53.210;5.772;2022-12-18T16:49:33;13.68;;;5.97;;
56477;SDS011;42382;53.210;5.772;2022-12-18T16:52:02;8.65;;;5.10;;